sensor_id;sensor_type;location;lat;lon;timestamp;P1;durP1;ratioP1;P2;durP2;ratioP2
74715;SDS011;63234;37.558;127.058;2023-12-20T00:00:01;4.95;;;3.17;;
74715;SDS011;63234;37.558;127.058;2023-12-20T00:02:26;4.35;;;2.50;;
74715;SDS011;63234;37.558;127.058;2023-12-20T00:04:52;3.72;;;2.50;;
74715;SDS011;63234;37.558;127.058;2023-12-20T00:07:17;5.70;;;2.28;;
74715;SDS011;63234;37.558;127.058;2023-12-20T00:09:43;7.55;;;4.22;;
74715;SDS011;63234;37.558;127.058;2023-12-20T00:12:11;3.67;;;2.60;;
74715;SDS011;63234;37.558;127.058;2023-12-20T00:14:37;5.32;;;3.33;;
74715;SDS011;63234;37.558;127.058;2023-12-20T00:17:03;4.45;;;2.63;;
74715;SDS011;63234;37.558;127.058;2023-12-20T00:19:29;4.13;;;3.08;;
74715;SDS011;63234;37.558;127.058;2023-12-20T00:21:54;3.95;;;2.90;;
74715;SDS011;63234;37.558;127.058;2023-12-20T00:24:24;4.80;;;3.33;;
74715;SDS011;63234;37.558;127.058;2023-12-20T00:26:49;5.43;;;3.63;;
74715;SDS011;63234;37.558;127.058;2023-12-20T00:29:15;5.70;;;3.08;;
74715;SDS011;63234;37.558;127.058;2023-12-20T00:31:40;6.40;;;3.90;;
74715;SDS011;63234;37.558;127.058;2023-12-20T00:34:05;6.63;;;2.85;;
74715;SDS011;63234;37.558;127.058;2023-12-20T00:36:31;5.22;;;3.22;;
74715;SDS011;63234;37.558;127.058;2023-12-20T00:38:56;6.00;;;2.70;;
74715;SDS011;63234;37.558;127.058;2023-12-20T00:41:22;3.15;;;2.28;;
74715;SDS011;63234;37.558;127.058;2023-12-20T00:43:47;4.15;;;2.88;;
74715;SDS011;63234;37.558;127.058;2023-12-20T00:46:12;5.70;;;2.88;;
74715;SDS011;63234;37.558;127.058;2023-12-20T00:48:38;6.60;;;3.88;;
74715;SDS011;63234;37.558;127.058;2023-12-20T00:51:03;6.47;;;3.05;;
74715;SDS011;63234;37.558;127.058;2023-12-20T00:53:29;6.57;;;3.72;;
74715;SDS011;63234;37.558;127.058;2023-12-20T00:55:54;11.27;;;3.28;;
74715;SDS011;63234;37.558;127.058;2023-12-20T00:58:19;5.47;;;3.72;;
74715;SDS011;63234;37.558;127.058;2023-12-20T01:00:45;6.20;;;3.13;;
74715;SDS011;63234;37.558;127.058;2023-12-20T01:03:10;6.72;;;3.28;;
74715;SDS011;63234;37.558;127.058;2023-12-20T01:05:35;4.40;;;3.03;;
74715;SDS011;63234;37.558;127.058;2023-12-20T01:08:01;4.15;;;2.53;;
74715;SDS011;63234;37.558;127.058;2023-12-20T01:10:28;2.55;;;2.17;;
74715;SDS011;63234;37.558;127.058;2023-12-20T01:12:54;4.47;;;2.55;;
74715;SDS011;63234;37.558;127.058;2023-12-20T01:15:19;3.95;;;3.15;;
74715;SDS011;63234;37.558;127.058;2023-12-20T01:17:45;5.88;;;3.45;;
74715;SDS011;63234;37.558;127.058;2023-12-20T01:20:10;7.68;;;3.95;;
74715;SDS011;63234;37.558;127.058;2023-12-20T01:22:35;7.72;;;3.85;;
74715;SDS011;63234;37.558;127.058;2023-12-20T01:25:01;7.72;;;4.20;;
74715;SDS011;63234;37.558;127.058;2023-12-20T01:27:27;4.05;;;2.88;;
74715;SDS011;63234;37.558;127.058;2023-12-20T01:29:53;3.88;;;2.45;;
74715;SDS011;63234;37.558;127.058;2023-12-20T01:32:18;7.15;;;4.07;;
74715;SDS011;63234;37.558;127.058;2023-12-20T01:34:43;3.28;;;2.17;;
74715;SDS011;63234;37.558;127.058;2023-12-20T01:37:09;6.95;;;3.05;;
74715;SDS011;63234;37.558;127.058;2023-12-20T01:39:34;3.65;;;2.95;;
74715;SDS011;63234;37.558;127.058;2023-12-20T01:41:59;5.82;;;2.45;;
74715;SDS011;63234;37.558;127.058;2023-12-20T01:44:24;5.10;;;3.10;;
74715;SDS011;63234;37.558;127.058;2023-12-20T01:46:50;5.82;;;3.45;;
74715;SDS011;63234;37.558;127.058;2023-12-20T01:49:16;3.50;;;2.55;;
74715;SDS011;63234;37.558;127.058;2023-12-20T01:51:41;3.55;;;2.63;;
74715;SDS011;63234;37.558;127.058;2023-12-20T01:54:07;4.88;;;3.00;;
74715;SDS011;63234;37.558;127.058;2023-12-20T01:56:34;4.43;;;2.33;;
74715;SDS011;63234;37.558;127.058;2023-12-20T01:59:00;4.05;;;3.00;;
74715;SDS011;63234;37.558;127.058;2023-12-20T02:01:26;6.65;;;2.90;;
74715;SDS011;63234;37.558;127.058;2023-12-20T02:03:53;4.57;;;3.05;;
74715;SDS011;63234;37.558;127.058;2023-12-20T02:06:21;5.53;;;3.20;;
74715;SDS011;63234;37.558;127.058;2023-12-20T02:08:49;6.35;;;3.42;;
74715;SDS011;63234;37.558;127.058;2023-12-20T02:11:14;4.40;;;2.95;;
74715;SDS011;63234;37.558;127.058;2023-12-20T02:13:40;6.65;;;3.83;;
74715;SDS011;63234;37.558;127.058;2023-12-20T02:16:05;5.13;;;2.95;;
74715;SDS011;63234;37.558;127.058;2023-12-20T02:18:32;6.28;;;2.10;;
74715;SDS011;63234;37.558;127.058;2023-12-20T02:20:58;8.45;;;2.67;;
74715;SDS011;63234;37.558;127.058;2023-12-20T02:23:23;9.43;;;2.55;;
74715;SDS011;63234;37.558;127.058;2023-12-20T02:25:48;5.47;;;2.78;;
74715;SDS011;63234;37.558;127.058;2023-12-20T02:28:13;4.78;;;2.92;;
74715;SDS011;63234;37.558;127.058;2023-12-20T02:30:39;4.18;;;2.15;;
74715;SDS011;63234;37.558;127.058;2023-12-20T02:33:06;4.32;;;2.90;;
74715;SDS011;63234;37.558;127.058;2023-12-20T02:35:33;4.13;;;3.05;;
74715;SDS011;63234;37.558;127.058;2023-12-20T02:37:59;4.45;;;2.15;;
74715;SDS011;63234;37.558;127.058;2023-12-20T02:40:24;5.13;;;2.85;;
74715;SDS011;63234;37.558;127.058;2023-12-20T02:42:49;3.83;;;2.55;;
74715;SDS011;63234;37.558;127.058;2023-12-20T02:45:15;7.35;;;3.13;;
74715;SDS011;63234;37.558;127.058;2023-12-20T02:47:40;4.13;;;2.60;;
74715;SDS011;63234;37.558;127.058;2023-12-20T02:50:05;3.72;;;2.33;;
74715;SDS011;63234;37.558;127.058;2023-12-20T02:52:31;4.78;;;3.38;;
74715;SDS011;63234;37.558;127.058;2023-12-20T02:54:56;2.35;;;1.92;;
74715;SDS011;63234;37.558;127.058;2023-12-20T02:57:21;2.67;;;2.13;;
74715;SDS011;63234;37.558;127.058;2023-12-20T02:59:47;2.67;;;1.95;;
74715;SDS011;63234;37.558;127.058;2023-12-20T03:02:12;4.90;;;2.75;;
74715;SDS011;63234;37.558;127.058;2023-12-20T03:04:37;3.55;;;2.25;;
74715;SDS011;63234;37.558;127.058;2023-12-20T03:07:03;3.33;;;2.05;;
74715;SDS011;63234;37.558;127.058;2023-12-20T03:09:28;3.60;;;2.03;;
74715;SDS011;63234;37.558;127.058;2023-12-20T03:11:53;4.25;;;2.55;;
74715;SDS011;63234;37.558;127.058;2023-12-20T03:14:19;2.45;;;1.75;;
74715;SDS011;63234;37.558;127.058;2023-12-20T03:16:50;2.80;;;2.13;;
74715;SDS011;63234;37.558;127.058;2023-12-20T03:19:17;3.67;;;2.08;;
74715;SDS011;63234;37.558;127.058;2023-12-20T03:21:43;3.20;;;1.90;;
74715;SDS011;63234;37.558;127.058;2023-12-20T03:24:09;4.70;;;2.80;;
74715;SDS011;63234;37.558;127.058;2023-12-20T03:26:34;7.13;;;2.35;;
74715;SDS011;63234;37.558;127.058;2023-12-20T03:29:00;4.00;;;2.53;;
74715;SDS011;63234;37.558;127.058;2023-12-20T03:31:25;4.53;;;1.98;;
74715;SDS011;63234;37.558;127.058;2023-12-20T03:33:51;3.63;;;2.45;;
74715;SDS011;63234;37.558;127.058;2023-12-20T03:36:18;4.28;;;1.73;;
74715;SDS011;63234;37.558;127.058;2023-12-20T03:38:44;3.70;;;2.25;;
74715;SDS011;63234;37.558;127.058;2023-12-20T03:41:09;3.28;;;2.10;;
74715;SDS011;63234;37.558;127.058;2023-12-20T03:43:34;2.30;;;1.75;;
74715;SDS011;63234;37.558;127.058;2023-12-20T03:46:00;3.95;;;1.90;;
74715;SDS011;63234;37.558;127.058;2023-12-20T03:48:25;4.90;;;2.65;;
74715;SDS011;63234;37.558;127.058;2023-12-20T03:50:50;2.25;;;1.77;;
74715;SDS011;63234;37.558;127.058;2023-12-20T03:53:16;4.18;;;2.10;;
74715;SDS011;63234;37.558;127.058;2023-12-20T03:55:41;5.70;;;2.60;;
74715;SDS011;63234;37.558;127.058;2023-12-20T03:58:06;2.22;;;1.33;;
74715;SDS011;63234;37.558;127.058;2023-12-20T04:00:32;4.20;;;2.45;;
74715;SDS011;63234;37.558;127.058;2023-12-20T04:02:57;3.95;;;2.13;;
74715;SDS011;63234;37.558;127.058;2023-12-20T04:05:23;1.95;;;1.48;;
74715;SDS011;63234;37.558;127.058;2023-12-20T04:07:48;8.27;;;2.38;;
74715;SDS011;63234;37.558;127.058;2023-12-20T04:10:15;2.63;;;1.73;;
74715;SDS011;63234;37.558;127.058;2023-12-20T04:12:40;7.43;;;1.98;;
74715;SDS011;63234;37.558;127.058;2023-12-20T04:15:06;2.25;;;1.45;;
74715;SDS011;63234;37.558;127.058;2023-12-20T04:17:34;2.22;;;1.25;;
74715;SDS011;63234;37.558;127.058;2023-12-20T04:20:00;2.83;;;1.70;;
74715;SDS011;63234;37.558;127.058;2023-12-20T04:22:25;1.88;;;1.42;;
74715;SDS011;63234;37.558;127.058;2023-12-20T04:24:50;2.40;;;1.83;;
74715;SDS011;63234;37.558;127.058;2023-12-20T04:27:16;2.78;;;1.48;;
74715;SDS011;63234;37.558;127.058;2023-12-20T04:29:41;2.63;;;2.13;;
74715;SDS011;63234;37.558;127.058;2023-12-20T04:32:07;3.13;;;1.95;;
74715;SDS011;63234;37.558;127.058;2023-12-20T04:34:32;2.13;;;1.23;;
74715;SDS011;63234;37.558;127.058;2023-12-20T04:36:57;1.90;;;1.35;;
74715;SDS011;63234;37.558;127.058;2023-12-20T04:39:23;2.63;;;1.75;;
74715;SDS011;63234;37.558;127.058;2023-12-20T04:41:48;3.67;;;1.98;;
74715;SDS011;63234;37.558;127.058;2023-12-20T04:44:15;1.95;;;1.38;;
74715;SDS011;63234;37.558;127.058;2023-12-20T04:46:40;2.92;;;1.98;;
74715;SDS011;63234;37.558;127.058;2023-12-20T04:49:05;1.55;;;1.35;;
74715;SDS011;63234;37.558;127.058;2023-12-20T04:51:34;3.25;;;1.63;;
74715;SDS011;63234;37.558;127.058;2023-12-20T04:54:00;3.40;;;1.63;;
74715;SDS011;63234;37.558;127.058;2023-12-20T04:56:26;1.85;;;1.60;;
74715;SDS011;63234;37.558;127.058;2023-12-20T04:58:51;2.00;;;1.15;;
74715;SDS011;63234;37.558;127.058;2023-12-20T05:01:16;1.63;;;1.42;;
74715;SDS011;63234;37.558;127.058;2023-12-20T05:03:42;1.83;;;1.45;;
74715;SDS011;63234;37.558;127.058;2023-12-20T05:06:07;2.08;;;1.15;;
74715;SDS011;63234;37.558;127.058;2023-12-20T05:08:33;3.25;;;2.03;;
74715;SDS011;63234;37.558;127.058;2023-12-20T05:10:58;1.73;;;1.42;;
74715;SDS011;63234;37.558;127.058;2023-12-20T05:13:23;2.17;;;1.48;;
74715;SDS011;63234;37.558;127.058;2023-12-20T05:15:49;1.67;;;1.10;;
74715;SDS011;63234;37.558;127.058;2023-12-20T05:18:14;0.95;;;0.88;;
74715;SDS011;63234;37.558;127.058;2023-12-20T05:20:39;2.38;;;1.85;;
74715;SDS011;63234;37.558;127.058;2023-12-20T05:23:05;2.05;;;1.65;;
74715;SDS011;63234;37.558;127.058;2023-12-20T05:25:31;4.80;;;2.33;;
74715;SDS011;63234;37.558;127.058;2023-12-20T05:27:56;2.55;;;1.40;;
74715;SDS011;63234;37.558;127.058;2023-12-20T05:30:22;2.67;;;1.63;;
74715;SDS011;63234;37.558;127.058;2023-12-20T05:32:47;2.30;;;1.52;;
74715;SDS011;63234;37.558;127.058;2023-12-20T05:35:13;1.88;;;1.55;;
74715;SDS011;63234;37.558;127.058;2023-12-20T05:37:38;4.13;;;2.70;;
74715;SDS011;63234;37.558;127.058;2023-12-20T05:40:03;3.50;;;1.70;;
74715;SDS011;63234;37.558;127.058;2023-12-20T05:42:29;3.30;;;1.80;;
74715;SDS011;63234;37.558;127.058;2023-12-20T05:44:55;2.72;;;1.90;;
74715;SDS011;63234;37.558;127.058;2023-12-20T05:47:20;3.88;;;1.98;;
74715;SDS011;63234;37.558;127.058;2023-12-20T05:49:45;2.45;;;1.20;;
74715;SDS011;63234;37.558;127.058;2023-12-20T05:52:11;3.88;;;1.98;;
74715;SDS011;63234;37.558;127.058;2023-12-20T05:54:36;3.58;;;1.35;;
74715;SDS011;63234;37.558;127.058;2023-12-20T05:57:01;2.08;;;1.55;;
74715;SDS011;63234;37.558;127.058;2023-12-20T05:59:27;1.42;;;1.20;;
74715;SDS011;63234;37.558;127.058;2023-12-20T06:01:52;3.50;;;2.10;;
74715;SDS011;63234;37.558;127.058;2023-12-20T06:04:18;1.92;;;1.67;;
74715;SDS011;63234;37.558;127.058;2023-12-20T06:06:43;1.83;;;1.35;;
74715;SDS011;63234;37.558;127.058;2023-12-20T06:09:09;1.92;;;1.73;;
74715;SDS011;63234;37.558;127.058;2023-12-20T06:11:35;1.50;;;1.10;;
74715;SDS011;63234;37.558;127.058;2023-12-20T06:14:00;2.67;;;1.88;;
74715;SDS011;63234;37.558;127.058;2023-12-20T06:16:25;3.22;;;1.25;;
74715;SDS011;63234;37.558;127.058;2023-12-20T06:18:51;2.08;;;1.20;;
74715;SDS011;63234;37.558;127.058;2023-12-20T06:21:16;3.15;;;1.27;;
74715;SDS011;63234;37.558;127.058;2023-12-20T06:23:41;3.10;;;1.90;;
74715;SDS011;63234;37.558;127.058;2023-12-20T06:26:07;2.85;;;1.52;;
74715;SDS011;63234;37.558;127.058;2023-12-20T06:28:32;1.75;;;1.25;;
74715;SDS011;63234;37.558;127.058;2023-12-20T06:30:57;2.55;;;1.40;;
74715;SDS011;63234;37.558;127.058;2023-12-20T06:33:24;1.50;;;1.15;;
74715;SDS011;63234;37.558;127.058;2023-12-20T06:35:49;1.42;;;1.23;;
74715;SDS011;63234;37.558;127.058;2023-12-20T06:38:15;1.52;;;1.20;;
74715;SDS011;63234;37.558;127.058;2023-12-20T06:40:40;2.72;;;1.25;;
74715;SDS011;63234;37.558;127.058;2023-12-20T06:43:05;1.88;;;1.30;;
74715;SDS011;63234;37.558;127.058;2023-12-20T06:45:31;1.75;;;1.23;;
74715;SDS011;63234;37.558;127.058;2023-12-20T06:47:57;1.73;;;1.20;;
74715;SDS011;63234;37.558;127.058;2023-12-20T06:50:23;1.23;;;1.05;;
74715;SDS011;63234;37.558;127.058;2023-12-20T06:52:48;2.80;;;1.58;;
74715;SDS011;63234;37.558;127.058;2023-12-20T06:55:14;1.67;;;1.15;;
74715;SDS011;63234;37.558;127.058;2023-12-20T06:57:39;0.73;;;0.70;;
74715;SDS011;63234;37.558;127.058;2023-12-20T07:00:05;1.52;;;0.98;;
74715;SDS011;63234;37.558;127.058;2023-12-20T07:02:30;2.45;;;0.90;;
74715;SDS011;63234;37.558;127.058;2023-12-20T07:04:56;2.05;;;1.15;;
74715;SDS011;63234;37.558;127.058;2023-12-20T07:07:22;1.70;;;1.30;;
74715;SDS011;63234;37.558;127.058;2023-12-20T07:09:49;1.70;;;1.17;;
74715;SDS011;63234;37.558;127.058;2023-12-20T07:12:14;1.65;;;1.13;;
74715;SDS011;63234;37.558;127.058;2023-12-20T07:14:40;1.55;;;1.23;;
74715;SDS011;63234;37.558;127.058;2023-12-20T07:17:06;1.80;;;1.40;;
74715;SDS011;63234;37.558;127.058;2023-12-20T07:19:36;2.95;;;1.40;;
74715;SDS011;63234;37.558;127.058;2023-12-20T07:22:02;5.78;;;1.80;;
74715;SDS011;63234;37.558;127.058;2023-12-20T07:24:28;1.10;;;1.00;;
74715;SDS011;63234;37.558;127.058;2023-12-20T07:26:53;1.38;;;0.90;;
74715;SDS011;63234;37.558;127.058;2023-12-20T07:29:18;2.45;;;1.00;;
74715;SDS011;63234;37.558;127.058;2023-12-20T07:31:43;2.63;;;1.67;;
74715;SDS011;63234;37.558;127.058;2023-12-20T07:34:09;6.53;;;3.10;;
74715;SDS011;63234;37.558;127.058;2023-12-20T07:36:35;7.88;;;1.55;;
74715;SDS011;63234;37.558;127.058;2023-12-20T07:39:00;2.80;;;2.20;;
74715;SDS011;63234;37.558;127.058;2023-12-20T07:41:25;2.90;;;2.05;;
74715;SDS011;63234;37.558;127.058;2023-12-20T07:43:51;12.80;;;2.30;;
74715;SDS011;63234;37.558;127.058;2023-12-20T07:46:16;3.47;;;2.50;;
74715;SDS011;63234;37.558;127.058;2023-12-20T07:48:41;4.18;;;2.67;;
74715;SDS011;63234;37.558;127.058;2023-12-20T07:51:07;2.50;;;1.73;;
74715;SDS011;63234;37.558;127.058;2023-12-20T07:53:34;2.78;;;1.88;;
74715;SDS011;63234;37.558;127.058;2023-12-20T07:56:00;6.03;;;4.28;;
74715;SDS011;63234;37.558;127.058;2023-12-20T07:58:25;3.33;;;1.90;;
74715;SDS011;63234;37.558;127.058;2023-12-20T08:00:51;3.63;;;2.30;;
74715;SDS011;63234;37.558;127.058;2023-12-20T08:03:16;3.38;;;1.92;;
74715;SDS011;63234;37.558;127.058;2023-12-20T08:05:41;4.20;;;2.28;;
74715;SDS011;63234;37.558;127.058;2023-12-20T08:08:07;2.95;;;1.48;;
74715;SDS011;63234;37.558;127.058;2023-12-20T08:10:32;5.50;;;3.92;;
74715;SDS011;63234;37.558;127.058;2023-12-20T08:12:57;7.65;;;4.20;;
74715;SDS011;63234;37.558;127.058;2023-12-20T08:15:23;3.85;;;2.65;;
74715;SDS011;63234;37.558;127.058;2023-12-20T08:17:48;3.15;;;1.73;;
74715;SDS011;63234;37.558;127.058;2023-12-20T08:20:15;2.58;;;1.95;;
74715;SDS011;63234;37.558;127.058;2023-12-20T08:22:41;2.90;;;2.17;;
74715;SDS011;63234;37.558;127.058;2023-12-20T08:25:07;5.53;;;2.35;;
74715;SDS011;63234;37.558;127.058;2023-12-20T08:27:33;2.45;;;1.95;;
74715;SDS011;63234;37.558;127.058;2023-12-20T08:29:59;3.15;;;1.77;;
74715;SDS011;63234;37.558;127.058;2023-12-20T08:32:27;7.53;;;2.58;;
74715;SDS011;63234;37.558;127.058;2023-12-20T08:34:53;2.83;;;2.20;;
74715;SDS011;63234;37.558;127.058;2023-12-20T08:37:19;3.60;;;2.05;;
74715;SDS011;63234;37.558;127.058;2023-12-20T08:39:44;2.75;;;1.50;;
74715;SDS011;63234;37.558;127.058;2023-12-20T08:42:10;4.35;;;1.80;;
74715;SDS011;63234;37.558;127.058;2023-12-20T08:44:35;7.40;;;2.83;;
74715;SDS011;63234;37.558;127.058;2023-12-20T08:47:00;6.18;;;2.60;;
74715;SDS011;63234;37.558;127.058;2023-12-20T08:49:25;2.25;;;1.88;;
74715;SDS011;63234;37.558;127.058;2023-12-20T08:51:51;2.22;;;1.27;;
74715;SDS011;63234;37.558;127.058;2023-12-20T08:54:16;2.60;;;1.60;;
74715;SDS011;63234;37.558;127.058;2023-12-20T08:56:42;2.45;;;1.75;;
74715;SDS011;63234;37.558;127.058;2023-12-20T08:59:08;5.63;;;1.42;;
74715;SDS011;63234;37.558;127.058;2023-12-20T09:01:34;2.58;;;1.75;;
74715;SDS011;63234;37.558;127.058;2023-12-20T09:04:00;4.88;;;2.15;;
74715;SDS011;63234;37.558;127.058;2023-12-20T09:06:25;2.70;;;1.35;;
74715;SDS011;63234;37.558;127.058;2023-12-20T09:08:51;2.10;;;1.13;;
74715;SDS011;63234;37.558;127.058;2023-12-20T09:11:16;1.90;;;1.13;;
74715;SDS011;63234;37.558;127.058;2023-12-20T09:13:42;2.78;;;1.33;;
74715;SDS011;63234;37.558;127.058;2023-12-20T09:16:09;7.43;;;1.50;;
74715;SDS011;63234;37.558;127.058;2023-12-20T09:18:34;4.03;;;1.65;;
74715;SDS011;63234;37.558;127.058;2023-12-20T09:21:00;8.77;;;1.27;;
74715;SDS011;63234;37.558;127.058;2023-12-20T09:23:25;11.18;;;1.42;;
74715;SDS011;63234;37.558;127.058;2023-12-20T09:25:50;3.03;;;1.95;;
74715;SDS011;63234;37.558;127.058;2023-12-20T09:28:16;1.38;;;1.10;;
74715;SDS011;63234;37.558;127.058;2023-12-20T09:30:41;1.10;;;0.85;;
74715;SDS011;63234;37.558;127.058;2023-12-20T09:33:07;0.80;;;0.80;;
74715;SDS011;63234;37.558;127.058;2023-12-20T09:35:32;2.88;;;1.20;;
74715;SDS011;63234;37.558;127.058;2023-12-20T09:37:58;1.25;;;0.70;;
74715;SDS011;63234;37.558;127.058;2023-12-20T09:40:23;3.63;;;1.50;;
74715;SDS011;63234;37.558;127.058;2023-12-20T09:42:55;1.20;;;1.10;;
74715;SDS011;63234;37.558;127.058;2023-12-20T09:45:22;1.38;;;1.02;;
74715;SDS011;63234;37.558;127.058;2023-12-20T09:47:54;1.80;;;1.00;;
74715;SDS011;63234;37.558;127.058;2023-12-20T09:50:20;2.75;;;1.67;;
74715;SDS011;63234;37.558;127.058;2023-12-20T09:52:52;2.80;;;1.55;;
74715;SDS011;63234;37.558;127.058;2023-12-20T09:55:19;3.85;;;1.83;;
74715;SDS011;63234;37.558;127.058;2023-12-20T09:57:46;8.38;;;1.65;;
74715;SDS011;63234;37.558;127.058;2023-12-20T10:00:15;2.25;;;1.40;;
74715;SDS011;63234;37.558;127.058;2023-12-20T10:05:20;1.30;;;1.17;;
74715;SDS011;63234;37.558;127.058;2023-12-20T10:07:51;1.58;;;1.13;;
74715;SDS011;63234;37.558;127.058;2023-12-20T10:10:16;2.53;;;1.42;;
74715;SDS011;63234;37.558;127.058;2023-12-20T10:12:46;8.18;;;1.42;;
74715;SDS011;63234;37.558;127.058;2023-12-20T10:15:33;1.23;;;1.13;;
74715;SDS011;63234;37.558;127.058;2023-12-20T10:17:59;4.93;;;1.33;;
74715;SDS011;63234;37.558;127.058;2023-12-20T10:20:26;2.42;;;1.33;;
74715;SDS011;63234;37.558;127.058;2023-12-20T10:22:53;3.67;;;2.20;;
74715;SDS011;63234;37.558;127.058;2023-12-20T10:25:20;3.40;;;2.20;;
74715;SDS011;63234;37.558;127.058;2023-12-20T10:27:46;2.30;;;1.10;;
74715;SDS011;63234;37.558;127.058;2023-12-20T10:30:12;1.67;;;1.30;;
74715;SDS011;63234;37.558;127.058;2023-12-20T10:32:38;2.92;;;1.27;;
74715;SDS011;63234;37.558;127.058;2023-12-20T10:35:04;3.03;;;1.60;;
74715;SDS011;63234;37.558;127.058;2023-12-20T10:37:29;2.85;;;1.88;;
74715;SDS011;63234;37.558;127.058;2023-12-20T10:39:55;3.47;;;1.20;;
74715;SDS011;63234;37.558;127.058;2023-12-20T10:42:22;1.60;;;1.05;;
74715;SDS011;63234;37.558;127.058;2023-12-20T10:44:49;3.47;;;1.35;;
74715;SDS011;63234;37.558;127.058;2023-12-20T10:47:15;2.92;;;1.58;;
74715;SDS011;63234;37.558;127.058;2023-12-20T10:49:41;3.47;;;1.77;;
74715;SDS011;63234;37.558;127.058;2023-12-20T10:52:07;2.85;;;1.40;;
74715;SDS011;63234;37.558;127.058;2023-12-20T10:54:33;2.63;;;1.20;;
74715;SDS011;63234;37.558;127.058;2023-12-20T10:56:59;2.88;;;1.70;;
74715;SDS011;63234;37.558;127.058;2023-12-20T10:59:25;6.47;;;1.90;;
74715;SDS011;63234;37.558;127.058;2023-12-20T11:01:54;2.70;;;1.80;;
74715;SDS011;63234;37.558;127.058;2023-12-20T11:04:23;5.78;;;1.17;;
74715;SDS011;63234;37.558;127.058;2023-12-20T11:07:02;3.75;;;1.63;;
74715;SDS011;63234;37.558;127.058;2023-12-20T11:09:38;3.17;;;1.30;;
74715;SDS011;63234;37.558;127.058;2023-12-20T11:12:23;6.10;;;1.70;;
74715;SDS011;63234;37.558;127.058;2023-12-20T11:14:54;3.08;;;1.65;;
74715;SDS011;63234;37.558;127.058;2023-12-20T11:17:22;2.55;;;1.10;;
74715;SDS011;63234;37.558;127.058;2023-12-20T11:22:30;3.53;;;1.40;;
74715;SDS011;63234;37.558;127.058;2023-12-20T11:25:03;2.80;;;1.25;;
74715;SDS011;63234;37.558;127.058;2023-12-20T11:27:31;1.98;;;1.15;;
74715;SDS011;63234;37.558;127.058;2023-12-20T11:29:57;5.20;;;1.63;;
74715;SDS011;63234;37.558;127.058;2023-12-20T11:34:58;3.05;;;1.20;;
74715;SDS011;63234;37.558;127.058;2023-12-20T11:37:31;2.08;;;1.38;;
74715;SDS011;63234;37.558;127.058;2023-12-20T11:40:00;3.63;;;1.80;;
74715;SDS011;63234;37.558;127.058;2023-12-20T11:42:27;2.40;;;1.17;;
74715;SDS011;63234;37.558;127.058;2023-12-20T11:44:53;7.22;;;1.20;;
74715;SDS011;63234;37.558;127.058;2023-12-20T11:47:18;2.78;;;1.05;;
74715;SDS011;63234;37.558;127.058;2023-12-20T11:49:47;1.42;;;1.00;;
74715;SDS011;63234;37.558;127.058;2023-12-20T11:52:13;2.67;;;0.90;;
74715;SDS011;63234;37.558;127.058;2023-12-20T11:54:38;4.95;;;0.90;;
74715;SDS011;63234;37.558;127.058;2023-12-20T11:57:04;6.65;;;1.20;;
74715;SDS011;63234;37.558;127.058;2023-12-20T11:59:30;1.77;;;1.15;;
74715;SDS011;63234;37.558;127.058;2023-12-20T12:01:56;1.38;;;0.90;;
74715;SDS011;63234;37.558;127.058;2023-12-20T12:04:25;2.28;;;0.90;;
74715;SDS011;63234;37.558;127.058;2023-12-20T12:06:51;1.30;;;1.15;;
74715;SDS011;63234;37.558;127.058;2023-12-20T12:09:16;0.90;;;0.70;;
74715;SDS011;63234;37.558;127.058;2023-12-20T12:11:42;4.45;;;1.05;;
74715;SDS011;63234;37.558;127.058;2023-12-20T12:14:08;3.00;;;1.00;;
74715;SDS011;63234;37.558;127.058;2023-12-20T12:16:33;2.10;;;1.10;;
74715;SDS011;63234;37.558;127.058;2023-12-20T12:18:59;4.40;;;1.20;;
74715;SDS011;63234;37.558;127.058;2023-12-20T12:21:25;4.90;;;1.05;;
74715;SDS011;63234;37.558;127.058;2023-12-20T12:23:50;3.53;;;0.93;;
74715;SDS011;63234;37.558;127.058;2023-12-20T12:26:16;1.00;;;0.68;;
74715;SDS011;63234;37.558;127.058;2023-12-20T12:28:41;1.77;;;1.17;;
74715;SDS011;63234;37.558;127.058;2023-12-20T12:31:07;1.50;;;0.90;;
74715;SDS011;63234;37.558;127.058;2023-12-20T12:33:33;2.05;;;0.70;;
74715;SDS011;63234;37.558;127.058;2023-12-20T12:36:00;2.13;;;1.20;;
74715;SDS011;63234;37.558;127.058;2023-12-20T12:38:26;1.30;;;0.93;;
74715;SDS011;63234;37.558;127.058;2023-12-20T12:40:52;0.95;;;0.80;;
74715;SDS011;63234;37.558;127.058;2023-12-20T12:43:18;3.85;;;1.17;;
74715;SDS011;63234;37.558;127.058;2023-12-20T12:45:44;1.75;;;1.05;;
74715;SDS011;63234;37.558;127.058;2023-12-20T12:48:09;2.33;;;1.15;;
74715;SDS011;63234;37.558;127.058;2023-12-20T12:50:35;7.55;;;1.30;;
74715;SDS011;63234;37.558;127.058;2023-12-20T12:53:00;4.72;;;1.60;;
74715;SDS011;63234;37.558;127.058;2023-12-20T12:55:27;3.67;;;1.00;;
74715;SDS011;63234;37.558;127.058;2023-12-20T12:57:53;2.15;;;1.20;;
74715;SDS011;63234;37.558;127.058;2023-12-20T13:00:18;6.25;;;1.40;;
74715;SDS011;63234;37.558;127.058;2023-12-20T13:02:44;5.90;;;1.38;;
74715;SDS011;63234;37.558;127.058;2023-12-20T13:05:09;3.30;;;0.75;;
74715;SDS011;63234;37.558;127.058;2023-12-20T13:07:35;0.68;;;0.60;;
74715;SDS011;63234;37.558;127.058;2023-12-20T13:10:00;1.30;;;1.00;;
74715;SDS011;63234;37.558;127.058;2023-12-20T13:12:26;2.63;;;1.70;;
74715;SDS011;63234;37.558;127.058;2023-12-20T13:14:51;2.90;;;1.60;;
74715;SDS011;63234;37.558;127.058;2023-12-20T13:17:16;2.53;;;1.00;;
74715;SDS011;63234;37.558;127.058;2023-12-20T13:19:42;6.45;;;1.00;;
74715;SDS011;63234;37.558;127.058;2023-12-20T13:22:08;7.85;;;1.83;;
74715;SDS011;63234;37.558;127.058;2023-12-20T13:24:33;4.60;;;0.98;;
74715;SDS011;63234;37.558;127.058;2023-12-20T13:26:59;2.17;;;0.90;;
74715;SDS011;63234;37.558;127.058;2023-12-20T13:29:25;2.58;;;0.80;;
74715;SDS011;63234;37.558;127.058;2023-12-20T13:31:53;0.93;;;0.52;;
74715;SDS011;63234;37.558;127.058;2023-12-20T13:34:18;1.80;;;0.75;;
74715;SDS011;63234;37.558;127.058;2023-12-20T13:36:44;0.68;;;0.68;;
74715;SDS011;63234;37.558;127.058;2023-12-20T13:39:15;3.17;;;1.10;;
74715;SDS011;63234;37.558;127.058;2023-12-20T13:41:40;5.85;;;1.73;;
74715;SDS011;63234;37.558;127.058;2023-12-20T13:44:06;5.07;;;1.10;;
74715;SDS011;63234;37.558;127.058;2023-12-20T13:46:31;2.47;;;1.10;;
74715;SDS011;63234;37.558;127.058;2023-12-20T13:48:57;2.05;;;0.88;;
74715;SDS011;63234;37.558;127.058;2023-12-20T13:51:22;1.27;;;0.70;;
74715;SDS011;63234;37.558;127.058;2023-12-20T13:53:48;2.13;;;0.90;;
74715;SDS011;63234;37.558;127.058;2023-12-20T13:56:13;2.20;;;0.88;;
74715;SDS011;63234;37.558;127.058;2023-12-20T13:58:39;2.47;;;1.38;;
74715;SDS011;63234;37.558;127.058;2023-12-20T14:01:06;1.15;;;0.65;;
74715;SDS011;63234;37.558;127.058;2023-12-20T14:03:32;4.45;;;1.40;;
74715;SDS011;63234;37.558;127.058;2023-12-20T14:05:57;2.75;;;1.00;;
74715;SDS011;63234;37.558;127.058;2023-12-20T14:08:22;1.73;;;1.05;;
74715;SDS011;63234;37.558;127.058;2023-12-20T14:10:49;1.98;;;0.90;;
74715;SDS011;63234;37.558;127.058;2023-12-20T14:13:15;3.47;;;1.88;;
74715;SDS011;63234;37.558;127.058;2023-12-20T14:15:40;1.52;;;1.10;;
74715;SDS011;63234;37.558;127.058;2023-12-20T14:18:05;2.83;;;1.05;;
74715;SDS011;63234;37.558;127.058;2023-12-20T14:20:32;3.10;;;1.05;;